createdAt,value
2022-10-07T00:01:06.282Z,101.82
2022-10-07T00:03:34.748Z,88.97
2022-10-07T00:06:19.399Z,89.25
2022-10-07T00:08:53.080Z,86.82
2022-10-07T00:11:26.056Z,91.53
2022-10-07T00:13:59.453Z,84.57
2022-10-07T00:16:34.854Z,87.00
2022-10-07T00:19:07.544Z,81.93
2022-10-07T00:21:37.525Z,83.93
2022-10-07T00:24:07.370Z,92.38
2022-10-07T00:26:36.779Z,83.18
2022-10-07T00:29:07.000Z,89.60
2022-10-07T00:31:38.227Z,79.75
2022-10-07T00:34:05.954Z,85.68
2022-10-07T00:36:37.466Z,85.18
2022-10-07T00:39:14.142Z,81.03
2022-10-07T00:41:51.856Z,89.38
2022-10-07T00:44:41.798Z,82.45
2022-10-07T00:47:29.708Z,80.10
2022-10-07T00:50:05.694Z,85.10
2022-10-07T00:52:42.048Z,88.00
2022-10-07T00:55:17.520Z,81.28
2022-10-07T00:57:47.955Z,83.78
2022-10-07T01:00:15.770Z,84.45
2022-10-07T01:02:44.383Z,84.30
2022-10-07T01:05:14.129Z,84.47
2022-10-07T01:07:47.944Z,81.78
2022-10-07T01:10:19.909Z,86.30
2022-10-07T01:13:19.586Z,91.80
2022-10-07T01:16:17.382Z,89.78
2022-10-07T01:19:59.694Z,90.97
2022-10-07T01:22:49.924Z,82.88
2022-10-07T01:25:51.140Z,88.80
2022-10-07T01:28:47.622Z,89.32
2022-10-07T01:33:48.287Z,87.90
2022-10-07T01:36:18.112Z,86.50
2022-10-07T01:38:56.686Z,94.80
2022-10-07T01:41:24.300Z,85.07
2022-10-07T01:43:54.996Z,87.43
2022-10-07T01:46:27.124Z,82.28
2022-10-07T01:48:57.818Z,85.60
2022-10-07T01:51:30.337Z,87.55
2022-10-07T01:54:32.854Z,92.85
2022-10-07T01:57:53.830Z,96.35
2022-10-07T02:00:21.261Z,104.38
2022-10-07T02:03:29.271Z,101.78
2022-10-07T02:06:24.527Z,114.40
2022-10-07T02:08:55.880Z,111.72
2022-10-07T02:11:37.667Z,119.63
2022-10-07T02:14:14.892Z,113.60
2022-10-07T02:16:48.226Z,115.10
2022-10-07T02:19:47.616Z,116.32
2022-10-07T02:22:17.549Z,122.72
2022-10-07T02:24:47.705Z,112.87
2022-10-07T02:27:23.221Z,105.22
2022-10-07T02:30:02.097Z,106.53
2022-10-07T02:32:31.993Z,105.95
2022-10-07T02:35:07.084Z,109.60
2022-10-07T02:37:39.899Z,105.47
2022-10-07T02:40:12.110Z,101.20
2022-10-07T02:43:53.176Z,109.50
2022-10-07T02:47:03.652Z,107.60
2022-10-07T02:49:38.377Z,107.50
2022-10-07T02:52:12.292Z,99.55
2022-10-07T02:54:52.337Z,103.28
2022-10-07T02:57:21.790Z,99.78
2022-10-07T02:59:51.468Z,98.78
2022-10-07T03:02:51.340Z,94.90
2022-10-07T03:05:21.371Z,100.65
2022-10-07T03:07:56.350Z,96.70
2022-10-07T03:10:24.137Z,89.60
2022-10-07T03:12:51.449Z,93.75
2022-10-07T03:15:20.111Z,99.22
2022-10-07T03:17:47.943Z,105.13
2022-10-07T03:20:15.523Z,107.47
2022-10-07T03:22:44.759Z,106.38
2022-10-07T03:25:15.394Z,101.82
2022-10-07T03:27:43.571Z,101.50
2022-10-07T03:30:12.098Z,105.55
2022-10-07T03:32:44.128Z,106.75
2022-10-07T03:35:11.369Z,101.65
2022-10-07T03:37:39.121Z,98.25
2022-10-07T03:40:09.996Z,95.63
2022-10-07T03:42:38.105Z,102.53
2022-10-07T03:45:06.989Z,98.88
2022-10-07T03:47:34.217Z,98.82
2022-10-07T03:50:01.700Z,92.53
2022-10-07T03:52:31.365Z,96.03
2022-10-07T03:54:58.565Z,91.75
2022-10-07T03:57:44.861Z,97.57
2022-10-07T04:00:13.403Z,94.95
2022-10-07T04:02:49.884Z,100.13
2022-10-07T04:05:21.443Z,101.47
2022-10-07T04:07:50.501Z,99.07
2022-10-07T04:10:20.322Z,103.93
2022-10-07T04:12:49.722Z,104.68
2022-10-07T04:15:17.805Z,101.57
2022-10-07T04:17:48.125Z,103.32
2022-10-07T04:20:18.305Z,101.05
2022-10-07T04:22:45.978Z,100.65
2022-10-07T04:25:32.293Z,99.32
2022-10-07T04:28:08.425Z,105.15
2022-10-07T04:30:40.538Z,104.63
2022-10-07T04:33:09.829Z,100.82
2022-10-07T04:35:39.588Z,107.65
2022-10-07T04:38:13.173Z,100.30
2022-10-07T04:40:46.644Z,98.25
2022-10-07T04:43:19.356Z,104.68
2022-10-07T04:46:02.237Z,112.00
2022-10-07T04:48:29.792Z,102.70
2022-10-07T04:51:07.740Z,102.70
2022-10-07T04:53:37.566Z,100.80
2022-10-07T04:56:06.412Z,98.97
2022-10-07T04:58:33.956Z,106.03
2022-10-07T05:01:09.224Z,95.25
2022-10-07T05:03:40.452Z,103.05
2022-10-07T05:06:09.475Z,105.30
2022-10-07T05:08:42.384Z,109.10
2022-10-07T05:11:11.020Z,100.47
2022-10-07T05:13:46.346Z,99.50
2022-10-07T05:16:13.966Z,104.57
2022-10-07T05:18:41.185Z,104.25
2022-10-07T05:21:12.057Z,107.50
2022-10-07T05:23:43.517Z,106.57
2022-10-07T05:26:15.231Z,104.47
2022-10-07T05:28:48.640Z,103.95
2022-10-07T05:31:20.281Z,104.30
2022-10-07T05:33:52.431Z,105.75
2022-10-07T05:36:24.942Z,98.82
2022-10-07T05:38:57.930Z,100.90
2022-10-07T05:41:30.764Z,101.53
2022-10-07T05:44:01.430Z,102.30
2022-10-07T05:46:28.813Z,102.07
2022-10-07T05:48:58.676Z,97.30
2022-10-07T05:51:31.510Z,100.15
2022-10-07T05:54:00.342Z,99.65
2022-10-07T05:56:36.805Z,98.32
2022-10-07T05:59:04.650Z,93.45
2022-10-07T06:01:32.592Z,99.05
2022-10-07T06:04:07.958Z,97.10
2022-10-07T06:06:38.559Z,96.82
2022-10-07T06:09:27.690Z,96.68
2022-10-07T06:12:14.920Z,99.18
2022-10-07T06:14:42.583Z,96.07
2022-10-07T06:17:10.411Z,89.03
2022-10-07T06:19:38.786Z,93.30
2022-10-07T06:22:06.569Z,90.72
2022-10-07T06:24:36.627Z,91.93
2022-10-07T06:27:04.112Z,95.03
2022-10-07T06:29:32.107Z,83.30
2022-10-07T06:32:00.353Z,83.88
2022-10-07T06:34:27.926Z,83.00
2022-10-07T06:36:56.162Z,89.70
2022-10-07T06:39:23.855Z,91.88
2022-10-07T06:41:54.449Z,91.10
2022-10-07T06:44:44.785Z,92.65
2022-10-07T06:47:16.545Z,93.40
2022-10-07T06:49:45.638Z,96.88
2022-10-07T06:52:13.658Z,96.38
2022-10-07T06:54:42.845Z,91.18
2022-10-07T06:57:40.435Z,84.97
2022-10-07T07:00:01.050Z,84.35
2022-10-07T07:02:30.480Z,80.63
2022-10-07T07:04:58.806Z,82.80
2022-10-07T07:07:27.347Z,74.25
2022-10-07T07:09:55.015Z,71.75
2022-10-07T07:12:25.257Z,67.70
2022-10-07T07:14:53.876Z,63.03
2022-10-07T07:17:22.037Z,64.90
2022-10-07T07:19:49.337Z,66.85
2022-10-07T07:22:17.717Z,66.65
2022-10-07T07:24:45.602Z,59.13
2022-10-07T07:27:15.086Z,58.63
2022-10-07T07:29:43.691Z,52.80
2022-10-07T07:32:12.082Z,50.17
2022-10-07T07:34:42.501Z,52.22
2022-10-07T07:37:14.162Z,53.60
2022-10-07T07:39:46.857Z,52.53
2022-10-07T07:42:16.857Z,49.97
2022-10-07T07:44:44.361Z,54.45
2022-10-07T07:47:18.472Z,50.97
2022-10-07T07:49:49.485Z,45.40
2022-10-07T07:52:29.548Z,49.38
2022-10-07T07:54:59.134Z,42.70
2022-10-07T07:57:28.288Z,43.65
2022-10-07T07:59:58.232Z,49.55
2022-10-07T08:02:26.678Z,48.50
2022-10-07T08:04:54.578Z,53.10
2022-10-07T08:07:22.986Z,54.22
2022-10-07T08:09:51.006Z,56.83
2022-10-07T08:12:21.035Z,56.85
2022-10-07T08:14:49.248Z,53.78
2022-10-07T08:17:17.514Z,60.65
2022-10-07T08:19:45.050Z,53.50
2022-10-07T08:22:17.464Z,59.88
2022-10-07T08:24:47.064Z,52.72
2022-10-07T08:27:15.781Z,60.95
2022-10-07T08:29:42.960Z,53.58
2022-10-07T08:32:11.228Z,54.78
2022-10-07T08:34:39.721Z,61.35
2022-10-07T08:37:06.993Z,59.45
2022-10-07T08:39:34.267Z,53.05
2022-10-07T08:42:42.508Z,58.58
2022-10-07T08:45:27.492Z,62.50
2022-10-07T08:47:57.483Z,59.05
2022-10-07T08:51:12.569Z,62.85
2022-10-07T08:53:40.191Z,62.05
2022-10-07T08:56:13.040Z,67.60
2022-10-07T08:59:04.291Z,62.00
2022-10-07T09:02:06.140Z,61.97
2022-10-07T09:05:08.584Z,60.80
2022-10-07T09:07:50.160Z,63.30
2022-10-07T09:10:34.359Z,61.75
2022-10-07T09:13:14.181Z,66.45
2022-10-07T09:16:00.577Z,65.85
2022-10-07T09:18:50.862Z,62.67
2022-10-07T09:21:48.238Z,64.53
2022-10-07T09:24:30.389Z,64.43
2022-10-07T09:27:23.031Z,64.40
2022-10-07T09:29:51.411Z,67.88
2022-10-07T09:32:19.983Z,66.18
2022-10-07T09:34:47.840Z,60.38
2022-10-07T09:37:34.936Z,63.67
2022-10-07T09:41:01.258Z,56.80
2022-10-07T09:43:31.876Z,60.72
2022-10-07T09:46:00.841Z,70.07
2022-10-07T09:48:33.714Z,57.10
2022-10-07T09:51:21.661Z,58.28
2022-10-07T09:54:05.179Z,57.08
2022-10-07T09:56:46.458Z,52.22
2022-10-07T09:59:29.718Z,56.90
2022-10-07T10:02:15.808Z,54.53
2022-10-07T10:04:57.368Z,59.05
2022-10-07T10:07:37.427Z,59.15
2022-10-07T10:10:22.457Z,55.28
2022-10-07T10:12:53.611Z,57.97
2022-10-07T10:15:35.872Z,58.20
2022-10-07T10:18:33.911Z,50.70
2022-10-07T10:21:29.842Z,49.03
2022-10-07T10:24:01.920Z,55.03
2022-10-07T10:27:07.134Z,51.65
2022-10-07T10:30:05.664Z,65.00
2022-10-07T10:33:25.753Z,52.65
2022-10-07T10:36:12.714Z,54.88
2022-10-07T10:39:04.541Z,51.13
2022-10-07T10:41:52.211Z,50.28
2022-10-07T10:44:42.576Z,52.10
2022-10-07T10:47:25.534Z,48.35
2022-10-07T10:50:10.816Z,46.75
2022-10-07T10:53:08.337Z,48.80
2022-10-07T10:56:02.399Z,47.25
2022-10-07T10:59:21.448Z,39.47
2022-10-07T11:02:29.463Z,44.42
2022-10-07T11:05:34.241Z,48.67
2022-10-07T11:08:27.089Z,43.08
2022-10-07T11:11:03.028Z,33.13
2022-10-07T11:13:54.368Z,33.40
2022-10-07T11:16:38.705Z,30.45
2022-10-07T11:19:35.924Z,30.65
2022-10-07T11:22:04.249Z,33.13
2022-10-07T11:24:57.009Z,35.88
2022-10-07T11:27:30.067Z,37.40
2022-10-07T11:30:11.153Z,32.67
2022-10-07T11:32:56.736Z,32.17
2022-10-07T11:35:33.220Z,34.97
2022-10-07T11:38:15.181Z,36.45
2022-10-07T11:41:02.546Z,40.08
2022-10-07T11:43:53.192Z,33.65
2022-10-07T11:46:33.054Z,34.92
2022-10-07T11:49:32.233Z,32.15
2022-10-07T11:52:34.725Z,35.47
2022-10-07T11:55:12.089Z,36.13
2022-10-07T11:57:43.773Z,36.78
2022-10-07T12:00:41.815Z,37.53
2022-10-07T12:03:19.458Z,32.67
2022-10-07T12:05:49.925Z,28.33
2022-10-07T12:08:41.617Z,32.40
2022-10-07T12:11:12.395Z,31.88
2022-10-07T12:13:51.098Z,34.17
2022-10-07T12:16:54.232Z,30.88
2022-10-07T12:19:24.019Z,33.15
2022-10-07T12:21:59.480Z,30.58
2022-10-07T12:26:59.346Z,31.55
2022-10-07T12:29:44.547Z,29.67
2022-10-07T12:32:52.065Z,24.95
2022-10-07T12:35:53.019Z,25.50
2022-10-07T12:38:28.054Z,27.48
2022-10-07T12:41:11.512Z,26.65
2022-10-07T12:44:00.506Z,33.08
2022-10-07T12:46:49.184Z,25.00
2022-10-07T12:49:48.902Z,24.10
2022-10-07T12:52:44.355Z,24.30
2022-10-07T12:55:40.421Z,23.27
2022-10-07T12:59:28.525Z,22.17
2022-10-07T13:02:24.192Z,22.35
2022-10-07T13:05:39.255Z,25.67
2022-10-07T13:08:49.335Z,21.55
2022-10-07T13:12:03.060Z,18.23
2022-10-07T13:14:50.098Z,23.50
2022-10-07T13:18:26.838Z,27.73
2022-10-07T13:21:22.842Z,25.67
2022-10-07T13:26:26.714Z,20.05
2022-10-07T13:29:00.345Z,22.92
2022-10-07T13:31:34.529Z,22.45
2022-10-07T13:34:17.968Z,25.67
2022-10-07T13:36:45.212Z,21.02
2022-10-07T13:39:23.140Z,20.70
2022-10-07T13:41:57.839Z,21.30
2022-10-07T13:44:31.747Z,18.27
2022-10-07T13:47:03.080Z,21.33
2022-10-07T13:49:43.440Z,17.88
2022-10-07T13:52:33.904Z,23.40
2022-10-07T13:55:01.280Z,18.25
2022-10-07T13:57:31.385Z,18.20
2022-10-07T14:00:00.059Z,17.77
2022-10-07T14:02:28.293Z,16.45
2022-10-07T14:05:14.383Z,25.35
2022-10-07T14:07:42.524Z,21.50
2022-10-07T14:10:11.089Z,16.75
2022-10-07T14:12:49.531Z,19.17
2022-10-07T14:15:31.427Z,17.55
2022-10-07T14:18:08.998Z,17.58
2022-10-07T14:21:08.808Z,21.85
2022-10-07T14:23:37.854Z,19.52
2022-10-07T14:26:18.955Z,15.65
2022-10-07T14:28:47.237Z,16.40
2022-10-07T14:31:39.976Z,13.68
2022-10-07T14:34:35.262Z,12.50
2022-10-07T14:37:28.421Z,12.80
2022-10-07T14:39:56.826Z,13.00
2022-10-07T14:42:36.189Z,12.32
2022-10-07T14:45:09.723Z,20.92
2022-10-07T14:47:41.325Z,24.83
2022-10-07T14:50:12.078Z,11.98
2022-10-07T14:52:49.047Z,13.70
2022-10-07T14:55:29.483Z,10.45
2022-10-07T14:57:56.805Z,14.63
2022-10-07T15:00:29.408Z,14.07
2022-10-07T15:02:57.734Z,14.73
2022-10-07T15:05:26.383Z,10.80
2022-10-07T15:07:53.798Z,16.38
2022-10-07T15:10:26.205Z,12.18
2022-10-07T15:12:55.999Z,11.55
2022-10-07T15:15:23.203Z,16.65
2022-10-07T15:17:50.503Z,14.00
2022-10-07T15:20:18.555Z,14.63
2022-10-07T15:22:46.159Z,11.60
2022-10-07T15:25:18.007Z,13.90
2022-10-07T15:27:45.257Z,14.07
2022-10-07T15:30:13.458Z,13.70
2022-10-07T15:32:40.670Z,12.05
2022-10-07T15:35:08.612Z,14.48
2022-10-07T15:37:35.946Z,15.85
2022-10-07T15:40:06.561Z,9.95
2022-10-07T15:42:33.834Z,12.27
2022-10-07T15:45:01.098Z,12.77
2022-10-07T15:47:28.298Z,12.48
2022-10-07T15:49:55.564Z,11.50
2022-10-07T15:52:22.869Z,16.45
2022-10-07T15:54:50.997Z,14.38
2022-10-07T15:57:18.214Z,14.70
2022-10-07T15:59:45.655Z,18.20
2022-10-07T16:02:17.328Z,14.80
2022-10-07T16:04:48.157Z,17.13
2022-10-07T16:07:16.193Z,16.52
2022-10-07T16:09:43.668Z,15.25
2022-10-07T16:12:11.279Z,18.50
2022-10-07T16:14:38.860Z,13.68
2022-10-07T16:17:06.158Z,18.25
2022-10-07T16:19:33.728Z,19.27
2022-10-07T16:22:01.144Z,17.10
2022-10-07T16:24:34.009Z,19.05
2022-10-07T16:27:02.371Z,23.45
2022-10-07T16:29:48.411Z,17.25
2022-10-07T16:32:15.790Z,21.77
2022-10-07T16:34:44.383Z,19.80
2022-10-07T16:37:12.461Z,28.40
2022-10-07T16:39:39.649Z,25.52
2022-10-07T16:42:08.573Z,22.83
2022-10-07T16:44:35.849Z,25.73
2022-10-07T16:47:03.258Z,20.13
2022-10-07T16:49:30.590Z,25.63
2022-10-07T16:51:58.403Z,20.45
2022-10-07T16:54:28.524Z,23.88
2022-10-07T16:56:56.349Z,26.42
2022-10-07T16:59:25.524Z,26.40
2022-10-07T17:01:56.843Z,21.23
2022-10-07T17:04:25.319Z,29.63
2022-10-07T17:06:53.774Z,25.90
2022-10-07T17:09:24.365Z,20.88
2022-10-07T17:11:51.957Z,23.88
2022-10-07T17:14:21.630Z,26.90
2022-10-07T17:16:56.946Z,24.65
2022-10-07T17:19:28.205Z,26.67
2022-10-07T17:21:59.164Z,24.48
2022-10-07T17:24:26.881Z,23.85
2022-10-07T17:26:55.207Z,21.20
2022-10-07T17:29:25.951Z,25.15
2022-10-07T17:31:53.969Z,23.85
2022-10-07T17:34:22.496Z,32.13
2022-10-07T17:36:50.644Z,27.55
2022-10-07T17:39:21.474Z,24.88
2022-10-07T17:41:49.220Z,24.15
2022-10-07T17:44:16.741Z,26.88
2022-10-07T17:46:44.260Z,23.70
2022-10-07T17:49:15.240Z,32.85
2022-10-07T17:51:43.954Z,27.90
2022-10-07T17:54:14.031Z,26.80
2022-10-07T17:56:45.625Z,34.58
2022-10-07T17:59:14.302Z,24.88
2022-10-07T18:01:42.148Z,25.98
2022-10-07T18:04:23.724Z,29.52
2022-10-07T18:06:52.136Z,28.75
2022-10-07T18:09:22.138Z,31.05
2022-10-07T18:12:08.075Z,32.70
2022-10-07T18:17:24.327Z,32.50
2022-10-07T18:19:52.176Z,30.95
2022-10-07T18:22:20.026Z,32.35
2022-10-07T18:24:47.300Z,34.03
2022-10-07T18:27:14.798Z,50.33
2022-10-07T18:29:42.009Z,40.30
2022-10-07T18:32:09.382Z,41.00
2022-10-07T18:34:36.993Z,36.75
2022-10-07T18:37:04.332Z,42.25
2022-10-07T18:39:33.038Z,39.33
2022-10-07T18:42:00.288Z,34.65
2022-10-07T18:44:27.785Z,33.97
2022-10-07T18:46:55.179Z,33.47
2022-10-07T18:49:23.517Z,35.60
2022-10-07T18:51:51.237Z,36.15
2022-10-07T18:54:21.769Z,32.72
2022-10-07T18:56:51.005Z,34.63
2022-10-07T18:59:20.195Z,29.48
2022-10-07T19:01:50.858Z,33.70
2022-10-07T19:04:19.895Z,34.75
2022-10-07T19:06:48.505Z,31.48
2022-10-07T19:09:20.718Z,32.33
2022-10-07T19:11:49.235Z,36.03
2022-10-07T19:14:16.868Z,38.17
2022-10-07T19:16:49.118Z,35.60
2022-10-07T19:19:23.901Z,41.25
2022-10-07T19:21:55.264Z,38.67
2022-10-07T19:24:45.893Z,37.60
2022-10-07T19:27:13.184Z,46.90
2022-10-07T19:29:40.752Z,48.40
2022-10-07T19:32:08.923Z,54.55
2022-10-07T19:34:36.507Z,49.08
2022-10-07T19:37:04.117Z,51.65
2022-10-07T19:39:31.751Z,61.47
2022-10-07T19:41:59.514Z,68.82
2022-10-07T19:44:27.236Z,89.82
2022-10-07T19:46:54.449Z,99.45
2022-10-07T19:49:22.302Z,88.72
2022-10-07T19:51:49.841Z,85.88
2022-10-07T19:54:17.676Z,85.47
2022-10-07T19:56:45.346Z,86.88
2022-10-07T19:59:15.058Z,85.38
2022-10-07T20:01:47.363Z,90.22
2022-10-07T20:04:20.714Z,77.50
2022-10-07T20:06:48.348Z,81.45
2022-10-07T20:09:19.327Z,78.47
2022-10-07T20:11:47.055Z,74.50
2022-10-07T20:14:16.039Z,77.78
2022-10-07T20:16:44.068Z,73.80
2022-10-07T20:19:18.650Z,67.70
2022-10-07T20:21:47.946Z,62.75
2022-10-07T20:24:16.844Z,69.18
2022-10-07T20:26:45.250Z,62.10
2022-10-07T20:29:15.916Z,73.63
2022-10-07T20:31:44.324Z,72.35
2022-10-07T20:34:19.966Z,70.70
2022-10-07T20:39:37.552Z,62.22
2022-10-07T20:42:21.202Z,58.85
2022-10-07T20:44:50.161Z,60.72
2022-10-07T20:47:19.222Z,63.03
2022-10-07T20:49:48.447Z,57.22
2022-10-07T20:52:24.353Z,57.35
2022-10-07T20:54:53.415Z,50.58
2022-10-07T20:57:28.523Z,54.53
2022-10-07T20:59:56.109Z,51.90
2022-10-07T21:02:25.590Z,51.42
2022-10-07T21:04:53.545Z,52.67
2022-10-07T21:07:21.447Z,46.28
2022-10-07T21:09:48.760Z,50.15
2022-10-07T21:12:18.274Z,50.83
2022-10-07T21:14:48.337Z,44.88
2022-10-07T21:17:16.672Z,47.85
2022-10-07T21:19:43.982Z,45.17
2022-10-07T21:22:11.363Z,41.30
2022-10-07T21:24:38.822Z,41.28
2022-10-07T21:27:07.764Z,35.85
2022-10-07T21:29:40.094Z,43.80
2022-10-07T21:32:10.572Z,37.33
2022-10-07T21:34:38.580Z,37.25
2022-10-07T21:37:05.920Z,36.60
2022-10-07T21:39:33.904Z,35.55
2022-10-07T21:42:02.048Z,39.33
2022-10-07T21:44:29.452Z,34.30
2022-10-07T21:46:59.856Z,37.67
2022-10-07T21:49:27.201Z,41.25
2022-10-07T21:51:54.872Z,35.35
2022-10-07T21:54:22.174Z,40.15
2022-10-07T21:56:50.088Z,36.20
2022-10-07T21:59:17.376Z,34.03
2022-10-07T22:01:44.625Z,37.22
2022-10-07T22:04:17.754Z,35.88
2022-10-07T22:07:04.658Z,37.08
2022-10-07T22:09:33.271Z,35.65
2022-10-07T22:12:00.937Z,31.27
2022-10-07T22:14:28.431Z,35.70
2022-10-07T22:16:55.912Z,38.28
2022-10-07T22:19:23.198Z,34.50
2022-10-07T22:21:50.589Z,36.15
2022-10-07T22:24:17.957Z,39.60
2022-10-07T22:26:48.002Z,35.42
2022-10-07T22:29:18.682Z,35.00
2022-10-07T22:31:47.352Z,37.53
2022-10-07T22:34:33.979Z,35.58
2022-10-07T22:37:02.002Z,37.78
2022-10-07T22:39:30.253Z,36.03
2022-10-07T22:41:58.604Z,37.42
2022-10-07T22:44:27.907Z,37.33
2022-10-07T22:46:57.101Z,41.95
2022-10-07T22:49:29.509Z,43.40
2022-10-07T22:51:59.691Z,35.33
2022-10-07T22:54:28.199Z,38.28
2022-10-07T22:56:55.652Z,40.38
2022-10-07T22:59:23.161Z,39.88
2022-10-07T23:01:50.605Z,37.90
2022-10-07T23:04:20.176Z,41.25
2022-10-07T23:06:48.279Z,38.15
2022-10-07T23:09:15.605Z,46.30
2022-10-07T23:11:42.777Z,45.35
2022-10-07T23:14:10.285Z,44.88
2022-10-07T23:16:37.646Z,41.67
2022-10-07T23:19:04.908Z,42.60
2022-10-07T23:21:35.033Z,47.22
2022-10-07T23:24:07.307Z,45.63
2022-10-07T23:26:36.992Z,37.30
2022-10-07T23:29:05.761Z,37.25
2022-10-07T23:31:33.636Z,44.05
2022-10-07T23:34:03.021Z,50.80
2022-10-07T23:36:31.730Z,48.25
2022-10-07T23:39:00.597Z,48.67
2022-10-07T23:41:30.745Z,53.45
2022-10-07T23:44:04.471Z,44.20
2022-10-07T23:46:35.020Z,41.88
2022-10-07T23:49:04.374Z,50.75
2022-10-07T23:51:33.616Z,44.20
2022-10-07T23:54:03.609Z,43.30
2022-10-07T23:56:32.681Z,41.75
2022-10-07T23:59:01.754Z,42.45
